Time,TemperatureF,DewpointF,PressureIn,WindDirection,WindDirectionDegrees,WindSpeedMPH,WindSpeedGustMPH,Humidity,HourlyPrecipIn,Conditions,Clouds,dailyrainin,SoftwareType,DateUTC
2013-01-24 00:03:00,-4.7,-16.4,30.70,NNE,30,5.8,5.8,56,0.00,CLR,,0.00,WeatherDisplay:10.37,2013-01-24 06:03:00,
2013-01-24 00:08:00,-4.8,-16.5,30.70,NNE,30,0.0,0.0,56,0.00,CLR,,0.00,WeatherDisplay:10.37,2013-01-24 06:08:00,
2013-01-24 00:13:00,-4.8,-15.8,30.70,NNE,30,3.5,3.5,58,0.00,CLR,,0.00,WeatherDisplay:10.37,2013-01-24 06:13:00,
2013-01-24 00:18:00,-4.8,-16.2,30.70,NNE,32,0.0,0.0,57,0.00,CLR,,0.00,WeatherDisplay:10.37,2013-01-24 06:18:00,
2013-01-24 00:23:00,-5.0,-16.4,30.70,NNE,19,3.0,3.0,57,0.00,CLR,,0.00,WeatherDisplay:10.37,2013-01-24 06:23:00,
2013-01-24 00:28:00,-5.1,-16.5,30.70,NNE,18,4.6,4.6,57,0.00,CLR,,0.00,WeatherDisplay:10.37,2013-01-24 06:28:00,
2013-01-24 00:33:00,-5.2,-16.6,30.70,North,5,3.5,3.5,57,0.00,CLR,,0.00,WeatherDisplay:10.37,2013-01-24 06:33:00,
2013-01-24 00:38:00,-5.3,-16.3,30.70,NNE,17,5.8,5.8,58,0.00,CLR,,0.00,WeatherDisplay:10.37,2013-01-24 06:38:00,
2013-01-24 00:43:00,-5.3,-16.3,30.70,NNE,21,4.6,4.6,58,0.00,CLR,,0.00,WeatherDisplay:10.37,2013-01-24 06:43:00,
2013-01-24 00:48:00,-5.3,-16.7,30.70,NNE,17,5.8,5.8,57,0.00,CLR,,0.00,WeatherDisplay:10.37,2013-01-24 06:48:00,
2013-01-24 00:53:00,-5.4,-16.1,30.70,NE,34,4.6,4.6,59,0.00,CLR,,0.00,WeatherDisplay:10.37,2013-01-24 06:53:00,
2013-01-24 00:58:00,-5.4,-16.4,30.70,NNE,23,5.8,5.8,58,0.00,CLR,,0.00,WeatherDisplay:10.37,2013-01-24 06:58:00,
2013-01-24 01:03:00,-5.4,-16.7,30.70,NNE,26,3.5,3.5,57,0.00,CLR,,0.00,WeatherDisplay:10.37,2013-01-24 07:03:00,
2013-01-24 01:08:00,-5.5,-16.5,30.70,NNE,29,0.0,0.0,58,0.00,CLR,,0.00,WeatherDisplay:10.37,2013-01-24 07:08:00,
2013-01-24 01:13:00,-5.4,-15.1,30.70,NE,42,3.5,0.0,62,0.00,CLR,,0.00,WeatherDisplay:10.37,2013-01-24 07:13:00,
2013-01-24 01:18:00,-5.5,-16.2,30.70,NNE,24,4.6,4.6,59,0.00,CLR,,0.00,WeatherDisplay:10.37,2013-01-24 07:18:00,
2013-01-24 01:23:00,-5.6,-16.6,30.70,NE,37,6.9,6.9,58,0.00,CLR,,0.00,WeatherDisplay:10.37,2013-01-24 07:23:00,
2013-01-24 01:28:00,-5.7,-16.4,30.70,ENE,65,3.5,3.5,59,0.00,CLR,,0.00,WeatherDisplay:10.37,2013-01-24 07:28:00,
2013-01-24 01:33:00,-5.6,-15.3,30.70,NE,41,0.0,0.0,62,0.00,CLR,,0.00,WeatherDisplay:10.37,2013-01-24 07:33:00,
2013-01-24 01:38:00,-5.7,-16.4,30.70,ENE,61,4.6,4.6,59,0.00,CLR,,0.00,WeatherDisplay:10.37,2013-01-24 07:38:00,
2013-01-24 01:43:00,-5.7,-16.4,30.70,NE,42,2.3,0.0,59,0.00,CLR,,0.00,WeatherDisplay:10.37,2013-01-24 07:43:00,
2013-01-24 01:48:00,-5.8,-16.4,30.71,ENE,71,6.9,6.9,59,0.00,CLR,,0.00,WeatherDisplay:10.37,2013-01-24 07:48:00,
2013-01-24 01:53:00,-5.9,-16.5,30.71,East,84,3.5,0.0,59,0.00,CLR,,0.00,WeatherDisplay:10.37,2013-01-24 07:53:00,
2013-01-24 01:58:00,-5.9,-16.9,30.71,ENE,69,4.6,4.6,58,0.00,CLR,,0.00,WeatherDisplay:10.37,2013-01-24 07:58:00,
2013-01-24 02:03:00,-6.1,-17.1,30.71,NE,55,3.5,3.5,58,0.00,CLR,,0.00,WeatherDisplay:10.37,2013-01-24 08:03:00,
2013-01-24 02:08:00,-6.1,-17.1,30.71,ENE,67,0.0,2.5,58,0.00,CLR,,0.00,WeatherDisplay:10.37,2013-01-24 08:08:00,
2013-01-24 02:13:00,-6.1,-16.4,30.72,ENE,58,0.0,0.1,60,0.00,CLR,,0.00,WeatherDisplay:10.37,2013-01-24 08:13:00,
2013-01-24 02:18:00,-6.2,-17.2,30.72,NE,56,1.1,0.0,58,0.00,CLR,,0.00,WeatherDisplay:10.37,2013-01-24 08:18:00,
2013-01-24 02:23:00,-6.3,-17.3,30.72,ENE,62,1.1,0.0,58,0.00,CLR,,0.00,WeatherDisplay:10.37,2013-01-24 08:23:00,
2013-01-24 02:28:00,-6.3,-17.3,30.73,ENE,60,3.5,3.5,58,0.00,CLR,,0.00,WeatherDisplay:10.37,2013-01-24 08:28:00,
2013-01-24 02:33:00,-6.3,-16.9,30.73,ENE,61,0.0,0.0,59,0.00,CLR,,0.00,WeatherDisplay:10.37,2013-01-24 08:33:00,
2013-01-24 02:39:00,-6.2,-16.8,30.73,ENE,61,0.0,0.0,59,0.00,CLR,,0.00,WeatherDisplay:10.37,2013-01-24 08:39:00,
2013-01-24 02:44:00,-6.2,-16.8,30.73,ENE,61,0.0,0.0,59,0.00,CLR,,0.00,WeatherDisplay:10.37,2013-01-24 08:44:00,
2013-01-24 02:49:00,-6.1,-16.1,30.73,ENE,61,0.0,0.0,61,0.00,CLR,,0.00,WeatherDisplay:10.37,2013-01-24 08:49:00,
2013-01-24 02:54:00,-6.1,-16.4,30.74,ENE,63,0.0,0.0,60,0.00,CLR,,0.00,WeatherDisplay:10.37,2013-01-24 08:54:00,
2013-01-24 02:59:00,-6.2,-16.8,30.73,ENE,63,2.3,2.3,59,0.00,CLR,,0.00,WeatherDisplay:10.37,2013-01-24 08:59:00,
2013-01-24 03:04:00,-6.2,-16.2,30.73,ENE,63,0.0,0.0,61,0.00,CLR,,0.00,WeatherDisplay:10.37,2013-01-24 09:04:00,
2013-01-24 03:09:00,-6.2,-16.5,30.74,ENE,63,0.0,0.0,60,0.00,CLR,,0.00,WeatherDisplay:10.37,2013-01-24 09:09:00,
2013-01-24 03:14:00,-6.0,-15.7,30.74,ENE,63,0.0,0.0,62,0.00,CLR,,0.00,WeatherDisplay:10.37,2013-01-24 09:14:00,
2013-01-24 03:19:00,-5.9,-15.6,30.74,ENE,65,0.0,0.0,62,0.00,CLR,,0.00,WeatherDisplay:10.37,2013-01-24 09:19:00,
2013-01-24 03:24:00,-6.0,-16.3,30.74,ENE,65,0.0,0.0,60,0.00,CLR,,0.00,WeatherDisplay:10.37,2013-01-24 09:24:00,
2013-01-24 03:29:00,-6.1,-16.4,30.75,ENE,65,0.0,0.0,60,0.00,CLR,,0.00,WeatherDisplay:10.37,2013-01-24 09:29:00,
2013-01-24 03:34:00,-6.0,-15.7,30.74,ENE,65,0.0,0.0,62,0.00,CLR,,0.00,WeatherDisplay:10.37,2013-01-24 09:34:00,
2013-01-24 03:39:00,-5.9,-15.9,30.75,ENE,65,0.0,0.0,61,0.00,CLR,,0.00,WeatherDisplay:10.37,2013-01-24 09:39:00,
2013-01-24 03:44:00,-5.9,-16.2,30.74,ENE,65,0.0,0.0,60,0.00,CLR,,0.00,WeatherDisplay:10.37,2013-01-24 09:44:00,
2013-01-24 03:49:00,-5.8,-15.2,30.74,ENE,64,0.0,0.0,63,0.00,CLR,,0.00,WeatherDisplay:10.37,2013-01-24 09:49:00,
2013-01-24 03:54:00,-5.8,-15.8,30.74,ENE,65,0.0,0.0,61,0.00,CLR,,0.00,WeatherDisplay:10.37,2013-01-24 09:54:00,
2013-01-24 03:59:00,-5.8,-15.5,30.75,ENE,65,0.0,0.0,62,0.00,CLR,,0.00,WeatherDisplay:10.37,2013-01-24 09:59:00,
2013-01-24 04:04:00,-5.9,-15.6,30.75,ENE,65,0.0,0.0,62,0.00,CLR,,0.00,WeatherDisplay:10.37,2013-01-24 10:04:00,
2013-01-24 04:09:00,-5.9,-15.9,30.75,ENE,64,0.0,0.0,61,0.00,CLR,,0.00,WeatherDisplay:10.37,2013-01-24 10:09:00,
2013-01-24 04:14:00,-5.9,-15.2,30.74,ENE,57,0.0,0.0,63,0.00,CLR,,0.00,WeatherDisplay:10.37,2013-01-24 10:14:00,
2013-01-24 04:19:00,-5.9,-15.9,30.74,ENE,57,0.0,0.0,61,0.00,CLR,,0.00,WeatherDisplay:10.37,2013-01-24 10:19:00,
2013-01-24 04:24:00,-6.0,-16.0,30.74,NE,56,0.0,0.0,61,0.00,CLR,,0.00,WeatherDisplay:10.37,2013-01-24 10:24:00,
2013-01-24 04:29:00,-6.0,-15.3,30.75,ENE,57,0.0,0.0,63,0.00,CLR,,0.00,WeatherDisplay:10.37,2013-01-24 10:29:00,
2013-01-24 04:34:00,-6.0,-16.0,30.75,ENE,57,0.0,0.0,61,0.00,CLR,,0.00,WeatherDisplay:10.37,2013-01-24 10:34:00,
2013-01-24 04:39:00,-5.9,-15.9,30.73,ENE,64,0.0,0.0,61,0.00,CLR,,0.00,WeatherDisplay:10.37,2013-01-24 10:39:00,
2013-01-24 04:44:00,-6.0,-16.0,30.72,ENE,65,3.5,0.0,61,0.00,CLR,,0.00,WeatherDisplay:10.37,2013-01-24 10:44:00,
2013-01-24 04:49:00,-6.1,-16.1,30.72,ENE,67,4.6,4.6,61,0.00,CLR,,0.00,WeatherDisplay:10.37,2013-01-24 10:49:00,
2013-01-24 04:54:00,-6.2,-16.2,30.72,ENE,61,3.5,0.0,61,0.00,CLR,,0.00,WeatherDisplay:10.37,2013-01-24 10:54:00,
2013-01-24 04:59:00,-6.2,-16.2,30.71,ENE,65,3.5,3.5,61,0.00,CLR,,0.00,WeatherDisplay:10.37,2013-01-24 10:59:00,
2013-01-24 05:04:00,-6.2,-16.2,30.71,ENE,67,4.6,4.6,61,0.00,CLR,,0.00,WeatherDisplay:10.37,2013-01-24 11:04:00,
2013-01-24 05:09:00,-6.2,-16.2,30.71,ENE,68,3.5,0.0,61,0.00,CLR,,0.00,WeatherDisplay:10.37,2013-01-24 11:09:00,
2013-01-24 05:14:00,-6.1,-16.1,30.72,ENE,78,3.5,3.5,61,0.00,CLR,,0.00,WeatherDisplay:10.37,2013-01-24 11:14:00,
2013-01-24 05:19:00,-6.1,-16.1,30.72,ENE,76,4.6,4.6,61,0.00,CLR,,0.00,WeatherDisplay:10.37,2013-01-24 11:19:00,
2013-01-24 05:24:00,-6.1,-15.8,30.72,ENE,74,1.1,0.0,62,0.00,CLR,,0.00,WeatherDisplay:10.37,2013-01-24 11:24:00,
2013-01-24 05:29:00,-6.1,-15.8,30.72,East,82,0.0,0.0,62,0.00,CLR,,0.00,WeatherDisplay:10.37,2013-01-24 11:29:00,
2013-01-24 05:34:00,-6.0,-15.7,30.72,East,84,0.0,0.0,62,0.00,CLR,,0.00,WeatherDisplay:10.37,2013-01-24 11:34:00,
2013-01-24 05:39:00,-5.9,-15.6,30.72,East,80,0.0,0.1,62,0.00,CLR,,0.00,WeatherDisplay:10.37,2013-01-24 11:39:00,
2013-01-24 05:44:00,-5.9,-15.6,30.72,East,97,0.0,0.0,62,0.00,CLR,,0.00,WeatherDisplay:10.37,2013-01-24 11:44:00,
2013-01-24 05:49:00,-5.8,-15.5,30.72,East,90,0.0,0.0,62,0.00,CLR,,0.00,WeatherDisplay:10.37,2013-01-24 11:49:00,
2013-01-24 05:54:00,-5.9,-15.6,30.72,East,92,2.3,0.0,62,0.00,CLR,,0.00,WeatherDisplay:10.37,2013-01-24 11:54:00,
2013-01-24 05:59:00,-5.8,-15.5,30.72,East,96,0.0,0.0,62,0.00,CLR,,0.00,WeatherDisplay:10.37,2013-01-24 11:59:00,
2013-01-24 06:04:00,-5.7,-15.4,30.73,East,96,0.0,0.0,62,0.00,CLR,,0.00,WeatherDisplay:10.37,2013-01-24 12:04:00,
2013-01-24 06:09:00,-5.6,-15.0,30.74,East,95,0.0,0.0,63,0.00,CLR,,0.00,WeatherDisplay:10.37,2013-01-24 12:09:00,
2013-01-24 06:14:00,-5.6,-15.3,30.74,East,96,0.0,0.0,62,0.00,CLR,,0.00,WeatherDisplay:10.37,2013-01-24 12:14:00,
2013-01-24 06:19:00,-5.7,-15.4,30.74,East,96,0.0,0.0,62,0.00,CLR,,0.00,WeatherDisplay:10.37,2013-01-24 12:19:00,
2013-01-24 06:24:00,-5.6,-15.3,30.74,East,95,0.0,0.0,62,0.00,CLR,,0.00,WeatherDisplay:10.37,2013-01-24 12:24:00,
2013-01-24 06:29:00,-5.7,-15.4,30.75,East,94,0.0,0.0,62,0.00,CLR,,0.00,WeatherDisplay:10.37,2013-01-24 12:29:00,
2013-01-24 06:34:00,-5.6,-15.0,30.75,East,94,0.0,0.0,63,0.00,CLR,,0.00,WeatherDisplay:10.37,2013-01-24 12:34:00,
2013-01-24 06:39:00,-5.5,-14.9,30.76,East,94,0.0,0.0,63,0.00,CLR,,0.00,WeatherDisplay:10.37,2013-01-24 12:39:00,
2013-01-24 06:44:00,-5.4,-14.8,30.76,East,94,0.0,0.0,63,0.00,CLR,,0.00,WeatherDisplay:10.37,2013-01-24 12:44:00,
2013-01-24 06:49:00,-5.3,-14.7,30.76,East,94,0.0,0.0,63,0.00,CLR,,0.00,WeatherDisplay:10.37,2013-01-24 12:49:00,
2013-01-24 06:54:00,-5.2,-14.9,30.76,East,94,0.0,0.0,62,0.00,CLR,,0.00,WeatherDisplay:10.37,2013-01-24 12:54:00,
2013-01-24 06:59:00,-5.1,-14.8,30.76,East,94,0.0,0.0,62,0.00,CLR,,0.00,WeatherDisplay:10.37,2013-01-24 12:59:00,
2013-01-24 07:04:00,-5.0,-14.7,30.76,East,94,0.0,0.0,62,0.00,CLR,,0.00,WeatherDisplay:10.37,2013-01-24 13:04:00,
2013-01-24 07:09:00,-4.9,-14.6,30.76,East,94,0.0,0.0,62,0.00,CLR,,0.00,WeatherDisplay:10.37,2013-01-24 13:09:00,
2013-01-24 07:14:00,-4.8,-14.5,30.76,East,94,0.0,0.0,62,0.00,CLR,,0.00,WeatherDisplay:10.37,2013-01-24 13:14:00,
2013-01-24 07:19:00,-4.8,-14.5,30.75,East,94,0.0,0.0,62,0.00,CLR,,0.00,WeatherDisplay:10.37,2013-01-24 13:19:00,
2013-01-24 07:24:00,-4.8,-14.8,30.75,East,94,0.0,0.0,61,0.00,CLR,,0.00,WeatherDisplay:10.37,2013-01-24 13:24:00,
2013-01-24 07:30:00,-4.8,-14.5,30.75,East,94,0.0,0.0,62,0.00,CLR,,0.00,WeatherDisplay:10.37,2013-01-24 13:30:00,
2013-01-24 07:35:00,-4.8,-14.5,30.75,East,91,0.0,0.0,62,0.00,CLR,,0.00,WeatherDisplay:10.37,2013-01-24 13:35:00,
2013-01-24 07:40:00,-4.7,-14.4,30.74,East,92,0.0,0.0,62,0.00,CLR,,0.00,WeatherDisplay:10.37,2013-01-24 13:40:00,
2013-01-24 07:45:00,-4.7,-14.4,30.75,East,94,0.0,0.0,62,0.00,CLR,,0.00,WeatherDisplay:10.37,2013-01-24 13:45:00,
2013-01-24 07:50:00,-4.6,-14.3,30.75,ESE,105,0.0,0.0,62,0.00,CLR,,0.00,WeatherDisplay:10.37,2013-01-24 13:50:00,
2013-01-24 07:55:00,-4.6,-14.3,30.74,ESE,102,0.0,0.0,62,0.00,CLR,,0.00,WeatherDisplay:10.37,2013-01-24 13:55:00,
2013-01-24 08:00:00,-4.5,-14.2,30.75,ESE,103,0.0,0.0,62,0.00,CLR,,0.00,WeatherDisplay:10.37,2013-01-24 14:00:00,
2013-01-24 08:05:00,-4.5,-14.2,30.74,ESE,110,0.0,0.0,62,0.00,CLR,,0.00,WeatherDisplay:10.37,2013-01-24 14:05:00,
2013-01-24 08:10:00,-4.4,-14.1,30.74,ESE,111,0.0,0.0,62,0.00,CLR,,0.00,WeatherDisplay:10.37,2013-01-24 14:10:00,
2013-01-24 08:15:00,-4.4,-14.1,30.73,ESE,111,4.6,4.6,62,0.00,CLR,,0.00,WeatherDisplay:10.37,2013-01-24 14:15:00,
2013-01-24 08:20:00,-4.3,-14.0,30.73,ESE,108,0.0,0.0,62,0.00,CLR,,0.00,WeatherDisplay:10.37,2013-01-24 14:20:00,
2013-01-24 08:25:00,-4.2,-13.6,30.73,ESE,106,4.6,4.6,63,0.00,CLR,,0.00,WeatherDisplay:10.37,2013-01-24 14:25:00,
2013-01-24 08:30:00,-4.3,-14.0,30.73,ESE,111,6.9,6.9,62,0.00,CLR,,0.00,WeatherDisplay:10.37,2013-01-24 14:30:00,
2013-01-24 08:35:00,-4.3,-14.0,30.72,ESE,113,0.0,0.0,62,0.00,CLR,,0.00,WeatherDisplay:10.37,2013-01-24 14:35:00,
2013-01-24 08:40:00,-4.3,-14.0,30.72,ESE,110,1.1,1.1,62,0.00,CLR,,0.00,WeatherDisplay:10.37,2013-01-24 14:40:00,
2013-01-24 08:45:00,-4.1,-13.5,30.72,ESE,106,0.0,0.0,63,0.00,CLR,,0.00,WeatherDisplay:10.37,2013-01-24 14:45:00,
2013-01-24 08:50:00,-4.0,-13.4,30.71,East,92,5.8,5.8,63,0.00,CLR,,0.00,WeatherDisplay:10.37,2013-01-24 14:50:00,
2013-01-24 08:55:00,-4.0,-13.4,30.71,East,88,8.1,8.1,63,0.00,CLR,,0.00,WeatherDisplay:10.37,2013-01-24 14:55:00,
2013-01-24 09:00:00,-4.0,-13.4,30.71,ESE,121,9.2,9.2,63,0.00,CLR,,0.00,WeatherDisplay:10.37,2013-01-24 15:00:00,
2013-01-24 09:05:00,-3.9,-13.3,30.71,ESE,119,8.1,8.1,63,0.00,CLR,,0.00,WeatherDisplay:10.37,2013-01-24 15:05:00,
2013-01-24 09:10:00,-3.8,-13.6,30.71,ESE,115,6.9,6.9,62,0.00,CLR,,0.00,WeatherDisplay:10.37,2013-01-24 15:10:00,
2013-01-24 09:15:00,-3.6,-13.1,30.71,ESE,111,3.5,0.0,63,0.00,CLR,,0.00,WeatherDisplay:10.37,2013-01-24 15:15:00,
2013-01-24 09:20:00,-3.7,-13.2,30.70,ESE,105,5.8,5.8,63,0.00,CLR,,0.00,WeatherDisplay:10.37,2013-01-24 15:20:00,
2013-01-24 09:25:00,-3.6,-13.1,30.71,SE,143,4.6,4.6,63,0.00,CLR,,0.00,WeatherDisplay:10.37,2013-01-24 15:25:00,
2013-01-24 09:30:00,-3.4,-12.9,30.70,SE,129,4.6,4.6,63,0.00,CLR,,0.00,WeatherDisplay:10.37,2013-01-24 15:30:00,
2013-01-24 09:35:00,-3.3,-12.8,30.70,ESE,105,0.0,0.0,63,0.00,CLR,,0.00,WeatherDisplay:10.37,2013-01-24 15:35:00,
2013-01-24 09:40:00,-3.1,-12.6,30.71,SE,126,5.8,5.8,63,0.00,CLR,,0.00,WeatherDisplay:10.37,2013-01-24 15:40:00,
2013-01-24 09:45:00,-2.9,-12.4,30.71,SE,126,0.0,0.0,63,0.00,CLR,,0.00,WeatherDisplay:10.37,2013-01-24 15:45:00,
2013-01-24 09:50:00,-2.7,-12.2,30.72,SE,130,4.6,4.6,63,0.00,CLR,,0.00,WeatherDisplay:10.37,2013-01-24 15:50:00,
2013-01-24 09:55:00,-2.7,-12.5,30.72,ESE,118,5.8,5.8,62,0.00,CLR,,0.00,WeatherDisplay:10.37,2013-01-24 15:55:00,
2013-01-24 10:00:00,-2.6,-12.4,30.71,SE,127,6.9,6.9,62,0.00,CLR,,0.00,WeatherDisplay:10.37,2013-01-24 16:00:00,
2013-01-24 10:05:00,-2.6,-12.4,30.71,SE,130,1.1,1.1,62,0.00,CLR,,0.00,WeatherDisplay:10.37,2013-01-24 16:05:00,
2013-01-24 10:10:00,-2.3,-12.1,30.71,SE,129,1.1,1.1,62,0.00,CLR,,0.00,WeatherDisplay:10.37,2013-01-24 16:10:00,
2013-01-24 10:15:00,-2.2,-12.0,30.71,ESE,105,4.6,4.6,62,0.00,CLR,,0.00,WeatherDisplay:10.37,2013-01-24 16:15:00,
2013-01-24 10:20:00,-2.2,-12.0,30.71,East,86,1.1,2.0,62,0.00,CLR,,0.00,WeatherDisplay:10.37,2013-01-24 16:20:00,
2013-01-24 10:25:00,-2.1,-11.9,30.71,ESE,123,1.1,1.9,62,0.00,CLR,,0.00,WeatherDisplay:10.37,2013-01-24 16:25:00,
2013-01-24 10:30:00,-1.8,-11.3,30.71,SE,124,0.0,0.0,63,0.00,CLR,,0.00,WeatherDisplay:10.37,2013-01-24 16:30:00,
2013-01-24 10:35:00,-1.4,-11.0,30.71,SE,136,8.1,8.1,63,0.00,CLR,,0.00,WeatherDisplay:10.37,2013-01-24 16:35:00,
2013-01-24 10:40:00,-1.6,-11.5,30.72,SE,136,6.9,6.9,62,0.00,CLR,,0.00,WeatherDisplay:10.37,2013-01-24 16:40:00,
2013-01-24 10:45:00,-1.4,-11.3,30.72,ESE,113,1.1,1.1,62,0.00,CLR,,0.00,WeatherDisplay:10.37,2013-01-24 16:45:00,
2013-01-24 10:50:00,-0.9,-10.8,30.71,SE,124,6.9,6.9,62,0.00,CLR,,0.00,WeatherDisplay:10.37,2013-01-24 16:50:00,
2013-01-24 10:55:00,-1.0,-11.2,30.70,ESE,111,6.9,6.9,61,0.00,CLR,,0.00,WeatherDisplay:10.37,2013-01-24 16:55:00,
2013-01-24 11:00:00,-0.8,-10.7,30.69,SE,141,3.5,0.0,62,0.00,CLR,,0.00,WeatherDisplay:10.37,2013-01-24 17:00:00,
2013-01-24 11:05:00,-0.5,-10.4,30.69,SE,130,10.4,10.4,62,0.00,CLR,,0.00,WeatherDisplay:10.37,2013-01-24 17:05:00,
2013-01-24 11:10:00,-0.3,-10.2,30.69,SSE,151,9.2,9.2,62,0.00,CLR,,0.00,WeatherDisplay:10.37,2013-01-24 17:10:00,
2013-01-24 11:15:00,-0.1,-10.4,30.69,SSE,165,6.9,6.9,61,0.00,CLR,,0.00,WeatherDisplay:10.37,2013-01-24 17:15:00,
2013-01-24 11:20:00,0.1,-9.9,30.69,South,169,8.1,8.1,62,0.00,CLR,,0.00,WeatherDisplay:10.37,2013-01-24 17:20:00,
2013-01-24 11:25:00,0.5,-9.5,30.68,ESE,119,9.2,9.2,62,0.00,CLR,,0.00,WeatherDisplay:10.37,2013-01-24 17:25:00,
2013-01-24 11:30:00,0.8,-9.5,30.68,SE,130,8.1,8.1,61,0.00,CLR,,0.00,WeatherDisplay:10.37,2013-01-24 17:30:00,
2013-01-24 11:35:00,0.8,-9.5,30.67,SE,128,11.5,11.5,61,0.00,CLR,,0.00,WeatherDisplay:10.37,2013-01-24 17:35:00,
2013-01-24 11:40:00,0.9,-9.4,30.67,SSE,149,6.9,0.0,61,0.00,CLR,,0.00,WeatherDisplay:10.37,2013-01-24 17:40:00,
2013-01-24 11:45:00,1.1,-9.2,30.67,SSE,157,11.5,11.5,61,0.00,CLR,,0.00,WeatherDisplay:10.37,2013-01-24 17:45:00,
2013-01-24 11:50:00,1.6,-8.8,30.67,South,181,6.9,6.9,61,0.00,CLR,,0.00,WeatherDisplay:10.37,2013-01-24 17:50:00,
2013-01-24 11:56:00,1.8,-8.9,30.67,SSE,161,10.4,10.4,60,0.00,CLR,,0.00,WeatherDisplay:10.37,2013-01-24 17:56:00,
2013-01-24 12:01:00,1.9,-8.8,30.67,SE,131,5.8,5.8,60,0.00,CLR,,0.00,WeatherDisplay:10.37,2013-01-24 18:01:00,
2013-01-24 12:06:00,2.0,-8.7,30.66,SSE,165,10.4,10.4,60,0.00,CLR,,0.00,WeatherDisplay:10.37,2013-01-24 18:06:00,
2013-01-24 12:11:00,2.1,-8.6,30.66,SE,140,6.9,6.9,60,0.00,CLR,,0.00,WeatherDisplay:10.37,2013-01-24 18:11:00,
2013-01-24 12:16:00,2.4,-8.3,30.66,SE,135,9.2,9.2,60,0.00,CLR,,0.00,WeatherDisplay:10.37,2013-01-24 18:16:00,
2013-01-24 12:21:00,2.5,-8.2,30.66,SE,127,9.2,9.2,60,0.00,CLR,,0.00,WeatherDisplay:10.37,2013-01-24 18:21:00,
2013-01-24 12:26:00,2.6,-8.1,30.65,SE,146,11.5,11.5,60,0.00,CLR,,0.00,WeatherDisplay:10.37,2013-01-24 18:26:00,
2013-01-24 12:31:00,2.8,-8.0,30.64,ESE,104,6.9,6.9,60,0.00,CLR,,0.00,WeatherDisplay:10.37,2013-01-24 18:31:00,
2013-01-24 12:36:00,3.1,-7.7,30.64,ESE,121,10.4,10.4,60,0.00,CLR,,0.00,WeatherDisplay:10.37,2013-01-24 18:36:00,
2013-01-24 12:41:00,3.5,-7.3,30.64,SE,135,9.2,9.2,60,0.00,CLR,,0.00,WeatherDisplay:10.37,2013-01-24 18:41:00,
2013-01-24 12:46:00,4.0,-6.8,30.63,SE,133,5.0,5.0,60,0.00,CLR,,0.00,WeatherDisplay:10.37,2013-01-24 18:46:00,
2013-01-24 12:51:00,4.3,-6.9,30.62,SE,140,8.1,8.1,59,0.00,CLR,,0.00,WeatherDisplay:10.37,2013-01-24 18:51:00,
2013-01-24 12:56:00,4.5,-7.0,30.62,ESE,111,8.1,8.1,58,0.00,CLR,,0.00,WeatherDisplay:10.37,2013-01-24 18:56:00,
2013-01-24 13:01:00,4.5,-7.0,30.61,SE,134,6.9,6.9,58,0.00,CLR,,0.00,WeatherDisplay:10.37,2013-01-24 19:01:00,
2013-01-24 13:06:00,4.6,-7.0,30.61,SE,142,10.4,10.4,58,0.00,CLR,,0.00,WeatherDisplay:10.37,2013-01-24 19:06:00,
2013-01-24 13:11:00,4.7,-7.2,30.60,ESE,110,10.4,10.4,57,0.00,CLR,,0.00,WeatherDisplay:10.37,2013-01-24 19:11:00,
2013-01-24 13:16:00,5.0,-6.6,30.60,SSE,156,0.0,0.0,58,0.00,CLR,,0.00,WeatherDisplay:10.37,2013-01-24 19:16:00,
2013-01-24 13:21:00,5.4,-6.6,30.60,SSE,147,5.8,5.8,57,0.00,CLR,,0.00,WeatherDisplay:10.37,2013-01-24 19:21:00,
2013-01-24 13:26:00,5.3,-6.7,30.60,SSE,161,11.5,11.5,57,0.00,CLR,,0.00,WeatherDisplay:10.37,2013-01-24 19:26:00,
2013-01-24 13:31:00,5.3,-6.7,30.60,SE,130,12.7,12.7,57,0.00,CLR,,0.00,WeatherDisplay:10.37,2013-01-24 19:31:00,
2013-01-24 13:36:00,5.3,-6.7,30.60,SSE,167,11.5,11.5,57,0.00,CLR,,0.00,WeatherDisplay:10.37,2013-01-24 19:36:00,
2013-01-24 13:41:00,5.6,-6.4,30.59,SE,144,3.5,3.5,57,0.00,CLR,,0.00,WeatherDisplay:10.37,2013-01-24 19:41:00,
2013-01-24 13:46:00,5.9,-6.1,30.59,SE,129,4.6,4.6,57,0.00,CLR,,0.00,WeatherDisplay:10.37,2013-01-24 19:46:00,
2013-01-24 13:51:00,6.3,-5.7,30.60,SE,126,1.1,1.1,57,0.00,CLR,,0.00,WeatherDisplay:10.37,2013-01-24 19:51:00,
2013-01-24 13:56:00,6.5,-5.9,30.59,SSE,157,5.8,5.8,56,0.00,CLR,,0.00,WeatherDisplay:10.37,2013-01-24 19:56:00,
2013-01-24 14:01:00,6.7,-5.7,30.59,ESE,105,9.2,9.2,56,0.00,CLR,,0.00,WeatherDisplay:10.37,2013-01-24 20:01:00,
2013-01-24 14:06:00,6.6,-5.8,30.58,ESE,121,5.8,5.8,56,0.00,CLR,,0.00,WeatherDisplay:10.37,2013-01-24 20:06:00,
2013-01-24 14:11:00,6.8,-5.2,30.59,SSE,152,5.8,5.8,57,0.00,CLR,,0.00,WeatherDisplay:10.37,2013-01-24 20:11:00,
2013-01-24 14:16:00,6.9,-5.5,30.58,East,96,3.5,3.5,56,0.00,CLR,,0.00,WeatherDisplay:10.37,2013-01-24 20:16:00,
2013-01-24 14:21:00,7.2,-5.2,30.58,SSE,168,9.2,9.2,56,0.00,CLR,,0.00,WeatherDisplay:10.37,2013-01-24 20:21:00,
2013-01-24 14:26:00,7.3,-5.1,30.57,ESE,111,9.2,9.2,56,0.00,CLR,,0.00,WeatherDisplay:10.37,2013-01-24 20:26:00,
2013-01-24 14:31:00,7.6,-4.9,30.56,ESE,110,3.5,3.5,56,0.00,CLR,,0.00,WeatherDisplay:10.37,2013-01-24 20:31:00,
2013-01-24 14:36:00,7.7,-4.8,30.55,SE,142,9.2,9.2,56,0.00,CLR,,0.00,WeatherDisplay:10.37,2013-01-24 20:36:00,
2013-01-24 14:41:00,7.8,-5.0,30.54,South,186,12.7,12.7,55,0.00,CLR,,0.00,WeatherDisplay:10.37,2013-01-24 20:41:00,
2013-01-24 14:46:00,8.1,-4.8,30.54,SE,133,13.0,13.0,55,0.00,CLR,,0.00,WeatherDisplay:10.37,2013-01-24 20:46:00,
2013-01-24 14:51:00,8.2,-5.0,30.54,SE,138,10.4,10.4,54,0.00,CLR,,0.00,WeatherDisplay:10.37,2013-01-24 20:51:00,
2013-01-24 14:56:00,8.4,-4.9,30.53,East,99,8.1,8.1,54,0.00,CLR,,0.00,WeatherDisplay:10.37,2013-01-24 20:56:00,
2013-01-24 15:01:00,8.4,-4.9,30.54,SSE,160,13.8,13.8,54,0.00,CLR,,0.00,WeatherDisplay:10.37,2013-01-24 21:01:00,
2013-01-24 15:06:00,8.4,-5.2,30.53,SE,132,11.5,11.5,53,0.00,CLR,,0.00,WeatherDisplay:10.37,2013-01-24 21:06:00,
2013-01-24 15:11:00,8.6,-4.7,30.53,SE,130,10.4,10.4,54,0.00,CLR,,0.00,WeatherDisplay:10.37,2013-01-24 21:11:00,
2013-01-24 15:16:00,8.8,-4.5,30.52,South,177,6.9,6.9,54,0.00,CLR,,0.00,WeatherDisplay:10.37,2013-01-24 21:16:00,
2013-01-24 15:21:00,8.9,-4.8,30.52,South,169,12.7,12.7,53,0.00,CLR,,0.00,WeatherDisplay:10.37,2013-01-24 21:21:00,
2013-01-24 15:26:00,9.0,-4.7,30.51,South,176,3.5,3.5,53,0.00,CLR,,0.00,WeatherDisplay:10.37,2013-01-24 21:26:00,
2013-01-24 15:31:00,9.2,-4.5,30.51,SE,130,8.1,8.1,53,0.00,CLR,,0.00,WeatherDisplay:10.37,2013-01-24 21:31:00,
2013-01-24 15:36:00,9.4,-4.7,30.51,SE,139,13.8,13.8,52,0.00,CLR,,0.00,WeatherDisplay:10.37,2013-01-24 21:36:00,
2013-01-24 15:41:00,9.4,-4.7,30.50,SSE,148,11.5,11.5,52,0.00,CLR,,0.00,WeatherDisplay:10.37,2013-01-24 21:41:00,
2013-01-24 15:46:00,9.4,-4.7,30.49,ESE,107,13.8,13.8,52,0.00,CLR,,0.00,WeatherDisplay:10.37,2013-01-24 21:46:00,
2013-01-24 15:51:00,9.4,-5.1,30.49,SE,125,15.0,15.0,51,0.00,CLR,,0.00,WeatherDisplay:10.37,2013-01-24 21:51:00,
2013-01-24 15:56:00,9.5,-4.6,30.49,ESE,106,13.8,13.8,52,0.00,CLR,,0.00,WeatherDisplay:10.37,2013-01-24 21:56:00,
2013-01-24 16:01:00,9.5,-4.6,30.49,SSE,152,5.8,5.8,52,0.00,CLR,,0.00,WeatherDisplay:10.37,2013-01-24 22:01:00,
2013-01-24 16:06:00,9.7,-4.8,30.49,SSE,150,12.7,12.7,51,0.00,CLR,,0.00,WeatherDisplay:10.37,2013-01-24 22:06:00,
2013-01-24 16:11:00,9.8,-4.7,30.48,SE,131,11.5,11.5,51,0.00,CLR,,0.00,WeatherDisplay:10.37,2013-01-24 22:11:00,
2013-01-24 16:16:00,9.9,-4.6,30.47,SSE,167,10.4,10.4,51,0.00,CLR,,0.00,WeatherDisplay:10.37,2013-01-24 22:16:00,
2013-01-24 16:21:00,9.9,-4.6,30.48,ESE,115,10.4,10.4,51,0.00,CLR,,0.00,WeatherDisplay:10.37,2013-01-24 22:21:00,
2013-01-24 16:26:00,9.9,-5.1,30.48,SE,140,12.7,12.7,50,0.00,CLR,,0.00,WeatherDisplay:10.37,2013-01-24 22:26:00,
2013-01-24 16:31:00,9.9,-5.1,30.48,SSE,156,9.2,9.2,50,0.00,CLR,,0.00,WeatherDisplay:10.37,2013-01-24 22:31:00,
2013-01-24 16:36:00,9.9,-5.1,30.47,SE,140,10.4,10.4,50,0.00,CLR,,0.00,WeatherDisplay:10.37,2013-01-24 22:36:00,
2013-01-24 16:41:00,9.9,-5.5,30.47,SE,132,11.5,11.5,49,0.00,CLR,,0.00,WeatherDisplay:10.37,2013-01-24 22:41:00,
2013-01-24 16:46:00,9.9,-5.5,30.47,ESE,102,9.2,9.2,49,0.00,CLR,,0.00,WeatherDisplay:10.37,2013-01-24 22:46:00,
2013-01-24 16:51:00,10.0,-5.4,30.46,SE,127,10.4,10.4,49,0.00,CLR,,0.00,WeatherDisplay:10.37,2013-01-24 22:51:00,
2013-01-24 16:56:00,9.9,-5.5,30.46,ESE,118,10.4,10.4,49,0.00,CLR,,0.00,WeatherDisplay:10.37,2013-01-24 22:56:00,
2013-01-24 17:01:00,9.9,-5.5,30.46,ESE,121,12.7,12.7,49,0.00,CLR,,0.00,WeatherDisplay:10.37,2013-01-24 23:01:00,
2013-01-24 17:06:00,9.9,-5.5,30.45,ESE,103,15.0,15.0,49,0.00,CLR,,0.00,WeatherDisplay:10.37,2013-01-24 23:06:00,
2013-01-24 17:11:00,9.9,-5.1,30.45,SSE,154,13.8,13.8,50,0.00,CLR,,0.00,WeatherDisplay:10.37,2013-01-24 23:11:00,
2013-01-24 17:16:00,9.9,-5.1,30.45,SE,143,9.2,9.2,50,0.00,CLR,,0.00,WeatherDisplay:10.37,2013-01-24 23:16:00,
2013-01-24 17:21:00,9.9,-5.1,30.44,SSE,156,11.5,11.5,50,0.00,CLR,,0.00,WeatherDisplay:10.37,2013-01-24 23:21:00,
2013-01-24 17:26:00,9.9,-5.1,30.44,SSE,165,11.5,11.5,50,0.00,CLR,,0.00,WeatherDisplay:10.37,2013-01-24 23:26:00,
2013-01-24 17:31:00,9.9,-5.1,30.44,SE,128,13.8,13.8,50,0.00,CLR,,0.00,WeatherDisplay:10.37,2013-01-24 23:31:00,
2013-01-24 17:36:00,9.9,-5.1,30.44,East,96,10.4,10.4,50,0.00,CLR,,0.00,WeatherDisplay:10.37,2013-01-24 23:36:00,
2013-01-24 17:42:00,9.9,-5.1,30.44,SE,141,11.5,11.5,50,0.00,CLR,,0.00,WeatherDisplay:10.37,2013-01-24 23:42:00,
2013-01-24 17:47:00,9.9,-5.1,30.44,South,173,9.2,9.2,50,0.00,CLR,,0.00,WeatherDisplay:10.37,2013-01-24 23:47:00,
2013-01-24 17:52:00,9.9,-5.1,30.44,SSE,148,3.5,3.5,50,0.00,CLR,,0.00,WeatherDisplay:10.37,2013-01-24 23:52:00,
2013-01-24 17:57:00,9.9,-5.1,30.44,SE,134,11.5,11.5,50,0.00,CLR,,0.00,WeatherDisplay:10.37,2013-01-24 23:57:00,
2013-01-24 18:02:00,9.9,-5.1,30.44,SSE,155,8.1,8.1,50,0.00,CLR,,0.00,WeatherDisplay:10.37,2013-01-25 00:02:00,
2013-01-24 18:07:00,9.9,-5.1,30.43,ESE,123,5.8,5.8,50,0.00,CLR,,0.00,WeatherDisplay:10.37,2013-01-25 00:07:00,
2013-01-24 18:12:00,9.9,-5.1,30.43,South,178,9.2,9.2,50,0.00,CLR,,0.00,WeatherDisplay:10.37,2013-01-25 00:12:00,
2013-01-24 18:17:00,9.9,-5.1,30.42,SE,140,11.5,11.5,50,0.00,CLR,,0.00,WeatherDisplay:10.37,2013-01-25 00:17:00,
2013-01-24 18:22:00,9.9,-5.1,30.41,South,188,15.0,15.0,50,0.00,CLR,,0.00,WeatherDisplay:10.37,2013-01-25 00:22:00,
2013-01-24 18:27:00,9.9,-4.6,30.41,SE,141,13.8,13.8,51,0.00,CLR,,0.00,WeatherDisplay:10.37,2013-01-25 00:27:00,
2013-01-24 18:32:00,9.9,-4.6,30.41,SSE,160,6.9,8.1,51,0.00,CLR,,0.00,WeatherDisplay:10.37,2013-01-25 00:32:00,
2013-01-24 18:37:00,9.9,-4.6,30.40,ESE,105,15.0,15.0,51,0.00,CLR,,0.00,WeatherDisplay:10.37,2013-01-25 00:37:00,
2013-01-24 18:42:00,9.9,-4.6,30.39,SE,133,13.8,13.8,51,0.00,CLR,,0.00,WeatherDisplay:10.37,2013-01-25 00:42:00,
2013-01-24 18:47:00,9.9,-4.2,30.39,South,184,11.5,11.5,52,0.00,CLR,,0.00,WeatherDisplay:10.37,2013-01-25 00:47:00,
2013-01-24 18:52:00,10.0,-4.2,30.41,South,172,9.2,9.2,52,0.00,CLR,,0.00,WeatherDisplay:10.37,2013-01-25 00:52:00,
2013-01-24 18:57:00,10.0,-4.2,30.41,ESE,113,11.5,11.5,52,0.00,CLR,,0.00,WeatherDisplay:10.37,2013-01-25 00:57:00,
2013-01-24 19:02:00,10.0,-4.2,30.40,South,176,12.7,12.7,52,0.00,CLR,,0.00,WeatherDisplay:10.37,2013-01-25 01:02:00,
2013-01-24 19:07:00,9.9,-3.8,30.40,SE,125,3.5,3.5,53,0.00,CLR,,0.00,WeatherDisplay:10.37,2013-01-25 01:07:00,
2013-01-24 19:12:00,10.0,-3.8,30.39,SE,140,6.9,6.9,53,0.00,CLR,,0.00,WeatherDisplay:10.37,2013-01-25 01:12:00,
2013-01-24 19:17:00,9.9,-3.8,30.38,South,176,9.2,9.2,53,0.00,CLR,,0.00,WeatherDisplay:10.37,2013-01-25 01:17:00,
2013-01-24 19:22:00,9.9,-3.5,30.38,South,177,5.8,5.8,54,0.00,CLR,,0.00,WeatherDisplay:10.37,2013-01-25 01:22:00,
2013-01-24 19:27:00,10.0,-3.4,30.37,SE,136,12.7,12.7,54,0.00,CLR,,0.00,WeatherDisplay:10.37,2013-01-25 01:27:00,
2013-01-24 19:32:00,10.0,-3.0,30.37,ESE,117,10.4,10.4,55,0.00,CLR,,0.00,WeatherDisplay:10.37,2013-01-25 01:32:00,
2013-01-24 19:37:00,10.0,-3.0,30.36,SSE,159,19.6,19.6,55,0.00,CLR,,0.00,WeatherDisplay:10.37,2013-01-25 01:37:00,
2013-01-24 19:42:00,10.1,-2.9,30.35,SSE,152,17.3,17.3,55,0.00,CLR,,0.00,WeatherDisplay:10.37,2013-01-25 01:42:00,
2013-01-24 19:47:00,10.0,-3.0,30.34,SE,140,15.0,15.0,55,0.00,CLR,,0.00,WeatherDisplay:10.37,2013-01-25 01:47:00,
2013-01-24 19:52:00,10.1,-2.5,30.34,SSE,163,13.8,13.8,56,0.00,CLR,,0.00,WeatherDisplay:10.37,2013-01-25 01:52:00,
2013-01-24 19:57:00,10.1,-2.5,30.34,ESE,114,17.3,17.3,56,0.00,CLR,,0.00,WeatherDisplay:10.37,2013-01-25 01:57:00,
2013-01-24 20:02:00,10.2,-2.4,30.34,South,173,5.8,5.8,56,0.00,CLR,,0.00,WeatherDisplay:10.37,2013-01-25 02:02:00,
2013-01-24 20:07:00,10.2,-2.4,30.34,South,187,11.5,11.5,56,0.00,CLR,,0.00,WeatherDisplay:10.37,2013-01-25 02:07:00,
2013-01-24 20:12:00,10.2,-2.4,30.33,SE,146,11.5,11.5,56,0.00,CLR,,0.00,WeatherDisplay:10.37,2013-01-25 02:12:00,
2013-01-24 20:17:00,10.2,-2.4,30.32,SE,130,10.4,10.4,56,0.00,CLR,,0.00,WeatherDisplay:10.37,2013-01-25 02:17:00,
2013-01-24 20:22:00,10.3,-1.9,30.33,SSE,152,10.4,10.4,57,0.00,CLR,,0.00,WeatherDisplay:10.37,2013-01-25 02:22:00,
2013-01-24 20:27:00,10.3,-1.9,30.32,SSE,150,11.5,11.5,57,0.00,CLR,,0.00,WeatherDisplay:10.37,2013-01-25 02:27:00,
2013-01-24 20:32:00,10.4,-1.8,30.32,South,190,20.7,20.7,57,0.00,CLR,,0.00,WeatherDisplay:10.37,2013-01-25 02:32:00,
2013-01-24 20:37:00,10.5,-1.8,30.32,South,173,11.5,11.5,57,0.00,CLR,,0.00,WeatherDisplay:10.37,2013-01-25 02:37:00,
2013-01-24 20:42:00,10.5,-1.8,30.33,SE,130,11.5,11.5,57,0.00,CLR,,0.00,WeatherDisplay:10.37,2013-01-25 02:42:00,
2013-01-24 20:47:00,10.7,-1.6,30.32,SSE,152,11.5,11.5,57,0.00,CLR,,0.00,WeatherDisplay:10.37,2013-01-25 02:47:00,
2013-01-24 20:52:00,10.8,-1.5,30.32,SE,132,9.2,9.2,57,0.00,CLR,,0.00,WeatherDisplay:10.37,2013-01-25 02:52:00,
2013-01-24 20:57:00,10.9,-1.4,30.32,SE,126,9.0,9.0,57,0.00,CLR,,0.00,WeatherDisplay:10.37,2013-01-25 02:57:00,
2013-01-24 21:02:00,11.0,-1.3,30.32,SE,146,6.9,6.9,57,0.00,CLR,,0.00,WeatherDisplay:10.37,2013-01-25 03:02:00,
2013-01-24 21:07:00,11.0,-0.9,30.31,South,177,13.0,13.0,58,0.00,CLR,,0.00,WeatherDisplay:10.37,2013-01-25 03:07:00,
2013-01-24 21:12:00,11.1,-0.8,30.31,SE,136,11.5,11.5,58,0.00,CLR,,0.00,WeatherDisplay:10.37,2013-01-25 03:12:00,
2013-01-24 21:17:00,11.1,-0.8,30.31,SSE,161,3.5,3.9,58,0.00,CLR,,0.00,WeatherDisplay:10.37,2013-01-25 03:17:00,
2013-01-24 21:22:00,11.2,-0.7,30.31,SSE,155,11.5,11.5,58,0.00,CLR,,0.00,WeatherDisplay:10.37,2013-01-25 03:22:00,
2013-01-24 21:27:00,11.3,-0.6,30.30,SSW,196,11.5,11.5,58,0.00,CLR,,0.00,WeatherDisplay:10.37,2013-01-25 03:27:00,
2013-01-24 21:32:00,11.3,-0.6,30.30,SSE,152,10.4,10.4,58,0.00,CLR,,0.00,WeatherDisplay:10.37,2013-01-25 03:32:00,
2013-01-24 21:37:00,11.4,-0.5,30.30,SE,133,12.7,12.7,58,0.00,CLR,,0.00,WeatherDisplay:10.37,2013-01-25 03:37:00,
2013-01-24 21:42:00,11.5,-0.4,30.29,SSW,196,11.5,11.5,58,0.00,CLR,,0.00,WeatherDisplay:10.37,2013-01-25 03:42:00,
2013-01-24 21:47:00,11.6,-0.3,30.29,SSW,199,16.1,16.1,58,0.00,CLR,,0.00,WeatherDisplay:10.37,2013-01-25 03:47:00,
2013-01-24 21:52:00,11.6,0.0,30.30,SSW,203,11.5,11.5,59,0.00,CLR,,0.00,WeatherDisplay:10.37,2013-01-25 03:52:00,
2013-01-24 21:57:00,11.7,0.1,30.31,SE,142,12.7,12.7,59,0.00,CLR,,0.00,WeatherDisplay:10.37,2013-01-25 03:57:00,
2013-01-24 22:02:00,11.8,0.2,30.31,SSW,194,11.5,11.5,59,0.00,CLR,,0.00,WeatherDisplay:10.37,2013-01-25 04:02:00,
2013-01-24 22:07:00,11.9,0.3,30.31,South,182,1.1,5.2,59,0.00,CLR,,0.00,WeatherDisplay:10.37,2013-01-25 04:07:00,
2013-01-24 22:12:00,12.0,0.4,30.32,SW,219,5.8,5.8,59,0.00,CLR,,0.00,WeatherDisplay:10.37,2013-01-25 04:12:00,
2013-01-24 22:17:00,12.1,0.5,30.32,South,178,9.2,9.2,59,0.00,CLR,,0.00,WeatherDisplay:10.37,2013-01-25 04:17:00,
2013-01-24 22:22:00,12.1,0.5,30.32,South,186,5.8,5.8,59,0.00,CLR,,0.00,WeatherDisplay:10.37,2013-01-25 04:22:00,
2013-01-24 22:27:00,12.2,0.6,30.32,SSW,196,1.1,1.1,59,0.00,CLR,,0.00,WeatherDisplay:10.37,2013-01-25 04:27:00,
2013-01-24 22:32:00,12.3,0.7,30.32,SSE,167,1.1,1.1,59,0.00,CLR,,0.00,WeatherDisplay:10.37,2013-01-25 04:32:00,
2013-01-24 22:37:00,12.3,0.7,30.32,SSW,194,6.9,0.0,59,0.00,CLR,,0.00,WeatherDisplay:10.37,2013-01-25 04:37:00,
2013-01-24 22:42:00,12.5,0.9,30.32,South,183,1.1,1.1,59,0.00,CLR,,0.00,WeatherDisplay:10.37,2013-01-25 04:42:00,
2013-01-24 22:47:00,12.5,0.9,30.32,SSW,194,6.9,6.9,59,0.00,CLR,,0.00,WeatherDisplay:10.37,2013-01-25 04:47:00,
2013-01-24 22:52:00,12.6,1.0,30.31,South,172,1.1,0.0,59,0.00,CLR,,0.00,WeatherDisplay:10.37,2013-01-25 04:52:00,
2013-01-24 22:57:00,12.7,0.7,30.30,South,186,1.1,1.1,58,0.00,CLR,,0.00,WeatherDisplay:10.37,2013-01-25 04:57:00,
2013-01-24 23:01:00,12.7,0.7,30.29,SSE,154,13.8,13.8,58,0.00,CLR,,0.00,WeatherDisplay:10.37,2013-01-25 05:01:00,
2013-01-24 23:06:00,12.7,0.7,30.29,South,176,2.3,2.3,58,0.00,CLR,,0.00,WeatherDisplay:10.37,2013-01-25 05:06:00,
2013-01-24 23:11:00,12.8,0.8,30.29,South,189,1.1,1.1,58,0.00,CLR,,0.00,WeatherDisplay:10.37,2013-01-25 05:11:00,
2013-01-24 23:16:00,12.9,0.9,30.29,South,186,1.1,0.0,58,0.00,CLR,,0.00,WeatherDisplay:10.37,2013-01-25 05:16:00,
2013-01-24 23:21:00,12.9,0.9,30.29,SSW,203,1.1,1.1,58,0.00,CLR,,0.00,WeatherDisplay:10.37,2013-01-25 05:21:00,
2013-01-24 23:26:00,13.0,1.0,30.29,South,176,2.3,2.3,58,0.00,CLR,,0.00,WeatherDisplay:10.37,2013-01-25 05:26:00,
2013-01-24 23:31:00,13.1,1.1,30.28,SSE,153,1.1,1.1,58,0.00,CLR,,0.00,WeatherDisplay:10.37,2013-01-25 05:31:00,
2013-01-24 23:36:00,13.2,1.2,30.28,South,178,0.0,0.3,58,0.00,CLR,,0.00,WeatherDisplay:10.37,2013-01-25 05:36:00,
2013-01-24 23:41:00,13.3,1.3,30.27,SSW,195,1.1,1.1,58,0.00,CLR,,0.00,WeatherDisplay:10.37,2013-01-25 05:41:00,
2013-01-24 23:46:00,13.4,1.4,30.27,SSE,159,3.5,3.5,58,0.00,CLR,,0.00,WeatherDisplay:10.37,2013-01-25 05:46:00,
2013-01-24 23:51:00,13.5,1.8,30.27,South,175,11.5,11.5,59,0.00,CLR,,0.00,WeatherDisplay:10.37,2013-01-25 05:51:00,
2013-01-24 23:57:00,13.6,2.6,30.26,SSW,195,10.4,10.4,61,0.00,CLR,,0.00,WeatherDisplay:10.37,2013-01-25 05:57:00,